createdAt,value
2019-04-20T00:00:07.564Z,8.50
2019-04-20T00:02:15.659Z,8.23
2019-04-20T00:04:24.427Z,9.03
2019-04-20T00:06:25.029Z,9.00
2019-04-20T00:08:34.716Z,8.47
2019-04-20T00:10:47.334Z,8.20
2019-04-20T00:12:58.429Z,9.47
2019-04-20T00:14:52.095Z,9.17
2019-04-20T00:16:57.394Z,9.47
2019-04-20T00:19:05.235Z,9.23
2019-04-20T00:21:38.836Z,9.50
2019-04-20T00:23:48.651Z,9.90
2019-04-20T00:26:17.309Z,9.37
2019-04-20T00:28:35.218Z,8.73
2019-04-20T00:30:46.639Z,9.20
2019-04-20T00:32:49.014Z,9.43
2019-04-20T00:34:41.673Z,8.97
2019-04-20T00:36:45.529Z,8.27
2019-04-20T00:38:56.575Z,8.37
2019-04-20T00:41:04.686Z,8.20
2019-04-20T00:43:06.561Z,9.30
2019-04-20T00:45:19.121Z,8.67
2019-04-20T00:47:30.890Z,9.27
2019-04-20T00:49:41.342Z,8.20
2019-04-20T00:51:52.572Z,8.53
2019-04-20T00:53:44.980Z,8.60
2019-04-20T00:55:46.458Z,9.20
2019-04-20T00:57:57.226Z,8.90
2019-04-20T01:00:17.566Z,8.97
2019-04-20T01:02:22.194Z,9.37
2019-04-20T01:04:34.261Z,8.30
2019-04-20T01:07:01.666Z,9.80
2019-04-20T01:09:20.333Z,9.03
2019-04-20T01:11:33.881Z,8.67
2019-04-20T01:13:42.091Z,9.10
2019-04-20T01:15:51.626Z,9.10
2019-04-20T01:17:48.250Z,8.80
2019-04-20T01:19:54.113Z,8.87
2019-04-20T01:22:05.255Z,9.20
2019-04-20T01:24:08.849Z,9.17
2019-04-20T01:26:17.307Z,8.13
2019-04-20T01:28:38.449Z,9.20
2019-04-20T01:30:35.295Z,9.10
2019-04-20T01:32:52.716Z,9.23
2019-04-20T01:34:54.392Z,8.90
2019-04-20T01:37:04.532Z,9.20
2019-04-20T01:39:09.212Z,9.00
2019-04-20T01:41:03.254Z,9.03
2019-04-20T01:43:09.985Z,8.23
2019-04-20T01:45:24.995Z,9.20
2019-04-20T01:47:23.735Z,8.93
2019-04-20T01:49:32.455Z,9.00
2019-04-20T01:51:49.160Z,9.50
2019-04-20T01:54:06.775Z,9.00
2019-04-20T01:56:20.552Z,9.67
2019-04-20T01:58:39.780Z,9.40
2019-04-20T02:00:56.365Z,8.80
2019-04-20T02:03:22.767Z,9.03
2019-04-20T02:05:32.077Z,8.63
2019-04-20T02:07:38.821Z,9.17
2019-04-20T02:09:48.499Z,9.70
2019-04-20T02:11:50.790Z,9.60
2019-04-20T02:13:58.790Z,9.07
2019-04-20T02:16:11.362Z,9.87
2019-04-20T02:18:22.783Z,9.37
2019-04-20T02:20:34.548Z,10.13
2019-04-20T02:22:38.565Z,9.90
2019-04-20T02:24:29.921Z,10.10
2019-04-20T02:26:36.658Z,9.20
2019-04-20T02:29:08.782Z,9.90
2019-04-20T02:31:32.661Z,9.90
2019-04-20T02:36:02.804Z,10.17
2019-04-20T02:38:10.427Z,9.97
2019-04-20T02:40:19.367Z,9.50
2019-04-20T02:42:26.541Z,10.90
2019-04-20T02:44:34.024Z,11.10
2019-04-20T02:46:45.306Z,10.07
2019-04-20T02:48:50.759Z,10.43
2019-04-20T02:50:52.913Z,11.17
2019-04-20T02:53:05.957Z,10.63
2019-04-20T02:55:09.437Z,11.10
2019-04-20T02:57:22.454Z,10.33
2019-04-20T02:59:47.541Z,10.40
2019-04-20T03:01:40.854Z,10.27
2019-04-20T03:03:35.952Z,10.47
2019-04-20T03:05:43.231Z,11.30
2019-04-20T03:07:57.423Z,11.37
2019-04-20T03:10:09.456Z,11.70
2019-04-20T03:12:18.749Z,11.23
2019-04-20T03:14:19.659Z,11.30
2019-04-20T03:16:28.525Z,11.23
2019-04-20T03:18:35.860Z,10.73
2019-04-20T03:20:46.645Z,11.53
2019-04-20T03:23:13.115Z,10.70
2019-04-20T03:24:59.766Z,10.93
2019-04-20T03:27:07.229Z,12.23
2019-04-20T03:29:40.802Z,11.90
2019-04-20T03:32:27.931Z,12.70
2019-04-20T03:34:25.515Z,10.67
2019-04-20T03:36:19.962Z,11.00
2019-04-20T03:38:17.321Z,11.03
2019-04-20T03:40:17.629Z,12.10
2019-04-20T03:42:12.045Z,11.90
2019-04-20T03:44:21.474Z,10.83
2019-04-20T03:46:35.728Z,12.90
2019-04-20T03:48:46.310Z,12.10
2019-04-20T03:50:56.462Z,12.10
2019-04-20T03:53:13.008Z,12.37
2019-04-20T03:55:21.093Z,12.03
2019-04-20T03:57:38.354Z,12.30
2019-04-20T03:59:56.120Z,11.47
2019-04-20T04:04:27.418Z,11.90
2019-04-20T04:06:24.189Z,12.13
2019-04-20T04:08:30.359Z,12.10
2019-04-20T04:10:48.526Z,11.63
2019-04-20T04:13:11.839Z,12.10
2019-04-20T04:15:17.268Z,12.17
2019-04-20T04:17:29.673Z,13.53
2019-04-20T04:19:36.570Z,13.00
2019-04-20T04:21:53.748Z,12.47
2019-04-20T04:24:02.435Z,13.43
2019-04-20T04:28:14.231Z,12.80
2019-04-20T04:30:22.119Z,13.00
2019-04-20T04:33:03.095Z,12.13
2019-04-20T04:34:47.845Z,13.13
2019-04-20T04:36:53.928Z,12.77
2019-04-20T04:38:58.874Z,13.40
2019-04-20T04:43:15.987Z,13.13
2019-04-20T04:45:09.172Z,12.73
2019-04-20T04:47:12.139Z,12.20
2019-04-20T04:49:24.953Z,12.80
2019-04-20T04:51:29.475Z,12.90
2019-04-20T04:53:44.222Z,12.97
2019-04-20T04:55:47.692Z,12.30
2019-04-20T04:57:45.713Z,13.10
2019-04-20T04:59:51.254Z,13.40
2019-04-20T05:01:58.124Z,13.77
2019-04-20T05:06:31.785Z,13.17
2019-04-20T05:08:32.638Z,12.50
2019-04-20T05:10:30.759Z,12.10
2019-04-20T05:12:37.713Z,13.33
2019-04-20T05:14:54.082Z,13.50
2019-04-20T05:17:04.552Z,12.43
2019-04-20T05:19:19.630Z,13.13
2019-04-20T05:21:30.317Z,12.23
2019-04-20T05:25:59.624Z,13.03
2019-04-20T05:28:03.069Z,12.23
2019-04-20T05:29:46.743Z,12.87
2019-04-20T05:31:58.663Z,12.20
2019-04-20T05:34:20.567Z,11.53
2019-04-20T05:36:23.460Z,11.53
2019-04-20T05:38:35.633Z,11.10
2019-04-20T05:40:38.989Z,12.67
2019-04-20T05:43:09.241Z,11.10
2019-04-20T05:45:11.812Z,12.97
2019-04-20T05:47:23.926Z,10.87
2019-04-20T05:49:30.387Z,10.90
2019-04-20T05:53:44.373Z,12.03
2019-04-20T05:55:50.281Z,11.40
2019-04-20T05:58:01.997Z,10.63
2019-04-20T06:00:08.373Z,9.57
2019-04-20T06:02:17.008Z,10.30
2019-04-20T06:04:27.949Z,10.23
2019-04-20T06:06:27.366Z,9.90
2019-04-20T06:08:53.703Z,10.00
2019-04-20T06:10:45.587Z,10.10
2019-04-20T06:12:45.533Z,10.37
2019-04-20T06:15:13.291Z,10.10
2019-04-20T06:17:31.671Z,8.80
2019-04-20T06:19:35.872Z,8.33
2019-04-20T06:21:52.650Z,9.03
2019-04-20T06:24:02.663Z,8.83
2019-04-20T06:28:14.886Z,8.00
2019-04-20T06:30:20.189Z,9.33
2019-04-20T06:33:16.143Z,8.85
2019-04-20T06:35:19.325Z,8.20
2019-04-20T06:37:21.408Z,7.95
2019-04-20T06:39:46.499Z,7.53
2019-04-20T06:41:54.336Z,7.58
2019-04-20T06:43:50.538Z,6.87
2019-04-20T06:46:01.932Z,7.60
2019-04-20T06:47:57.794Z,7.50
2019-04-20T06:50:11.133Z,7.08
2019-04-20T06:52:27.444Z,6.85
2019-04-20T06:54:48.303Z,7.08
2019-04-20T06:57:01.651Z,6.60
2019-04-20T06:59:11.944Z,6.70
2019-04-20T07:01:10.918Z,6.97
2019-04-20T07:03:37.730Z,7.08
2019-04-20T19:06:59.573Z,8.27
2019-04-20T19:09:09.269Z,9.57
2019-04-20T19:11:16.529Z,9.60
2019-04-20T19:13:43.479Z,13.40
2019-04-20T19:16:13.328Z,11.93
2019-04-20T19:18:23.921Z,10.97
2019-04-20T19:20:26.862Z,9.13
2019-04-20T19:22:30.217Z,9.63
2019-04-20T19:24:36.768Z,9.90
2019-04-20T19:26:46.655Z,11.67
2019-04-20T19:28:52.769Z,10.20
2019-04-20T19:31:05.783Z,9.90
2019-04-20T19:33:14.591Z,9.70
2019-04-20T19:35:23.890Z,8.87
2019-04-20T19:37:20.399Z,9.67
2019-04-20T19:39:32.119Z,10.30
2019-04-20T19:41:37.479Z,9.93
2019-04-20T19:43:41.364Z,11.63
2019-04-20T19:46:07.355Z,10.30
2019-04-20T19:48:00.148Z,10.43
2019-04-20T19:50:20.723Z,11.37
2019-04-20T19:52:25.215Z,10.20
2019-04-20T19:54:28.360Z,10.23
2019-04-20T19:56:35.909Z,9.90
2019-04-20T19:58:33.195Z,10.10
2019-04-20T20:00:46.393Z,10.10
2019-04-20T20:02:50.030Z,10.40
2019-04-20T20:05:00.394Z,11.27
2019-04-20T20:07:05.154Z,11.20
2019-04-20T20:09:11.201Z,11.90
2019-04-20T20:11:21.709Z,11.73
2019-04-20T20:13:20.384Z,12.07
2019-04-20T20:15:32.021Z,11.40
2019-04-20T20:17:55.684Z,11.47
2019-04-20T20:20:06.978Z,10.70
2019-04-20T20:22:00.225Z,11.47
2019-04-20T20:23:52.220Z,12.17
2019-04-20T20:25:57.040Z,10.63
2019-04-20T20:28:17.177Z,11.40
2019-04-20T20:30:17.899Z,12.23
2019-04-20T20:32:20.180Z,11.03
2019-04-20T20:34:26.687Z,11.00
2019-04-20T20:36:38.361Z,11.40
2019-04-20T20:38:38.954Z,11.87
2019-04-20T20:40:49.821Z,11.30
2019-04-20T20:43:00.473Z,11.67
2019-04-20T20:44:57.295Z,11.73
2019-04-20T20:47:05.837Z,12.50
2019-04-20T20:49:23.824Z,11.00
2019-04-20T20:51:34.485Z,12.70
2019-04-20T20:53:21.912Z,12.90
2019-04-20T20:55:30.876Z,12.27
2019-04-20T20:57:43.183Z,12.63
2019-04-20T20:59:42.944Z,12.70
2019-04-20T21:01:48.775Z,12.67
2019-04-20T21:03:49.011Z,12.10
2019-04-20T21:05:53.629Z,13.97
2019-04-20T21:07:57.961Z,13.13
2019-04-20T21:10:02.257Z,13.80
2019-04-20T21:12:12.301Z,14.70
2019-04-20T21:14:21.039Z,13.70
2019-04-20T21:16:24.796Z,13.33
2019-04-20T21:18:44.835Z,13.50
2019-04-20T21:20:47.858Z,13.20
2019-04-20T21:22:55.070Z,13.77
2019-04-20T21:24:48.243Z,12.50
2019-04-20T21:26:52.163Z,13.90
2019-04-20T21:28:57.524Z,13.87
2019-04-20T21:31:08.327Z,13.77
2019-04-20T21:33:09.349Z,14.03
2019-04-20T21:35:16.148Z,14.00
2019-04-20T21:37:23.981Z,13.50
2019-04-20T21:39:37.346Z,15.40
2019-04-20T21:41:32.063Z,16.17
2019-04-20T21:43:40.494Z,15.83
2019-04-20T21:45:49.798Z,16.30
2019-04-20T21:47:48.519Z,15.10
2019-04-20T21:50:05.826Z,14.27
2019-04-20T21:52:03.612Z,14.80
2019-04-20T21:54:05.567Z,14.87
2019-04-20T21:56:12.235Z,13.77
2019-04-20T21:58:19.344Z,13.27
2019-04-20T22:00:44.553Z,12.80
2019-04-20T22:02:56.183Z,13.33
2019-04-20T22:04:53.568Z,12.90
2019-04-20T22:06:58.313Z,12.33
2019-04-20T22:09:05.370Z,11.40
2019-04-20T22:11:09.561Z,11.90
2019-04-20T22:13:14.141Z,10.50
2019-04-20T22:15:25.976Z,12.63
2019-04-20T22:17:28.643Z,11.63
2019-04-20T22:19:41.954Z,11.37
2019-04-20T22:21:50.232Z,9.93
2019-04-20T22:23:59.953Z,10.60
2019-04-20T22:26:03.346Z,9.97
2019-04-20T22:27:58.551Z,12.00
2019-04-20T22:30:02.052Z,11.80
2019-04-20T22:32:11.601Z,12.07
2019-04-20T22:34:17.426Z,10.77
2019-04-20T22:36:20.197Z,10.90
2019-04-20T22:38:45.243Z,10.90
2019-04-20T22:40:49.035Z,10.73
2019-04-20T22:42:57.818Z,10.23
2019-04-20T22:45:05.266Z,9.67
2019-04-20T22:47:14.000Z,11.37
2019-04-20T22:49:29.032Z,10.23
2019-04-20T22:51:33.048Z,9.40
2019-04-20T22:53:35.587Z,10.30
2019-04-20T22:55:55.178Z,10.23
